createdAt,value
2022-08-08T00:00:55.782Z,83.02
2022-08-08T00:05:43.457Z,82.67
2022-08-08T00:11:18.356Z,82.12
2022-08-08T00:16:24.276Z,82.95
2022-08-08T00:21:46.199Z,82.68
2022-08-08T00:26:52.880Z,83.13
2022-08-08T00:32:16.201Z,82.94
2022-08-08T00:38:01.374Z,83.45
2022-08-08T00:43:22.717Z,83.27
2022-08-08T00:49:00.997Z,83.41
2022-08-08T00:54:20.717Z,83.49
2022-08-08T01:00:06.627Z,83.88
2022-08-08T01:05:59.289Z,83.41
2022-08-08T01:11:22.931Z,83.83
2022-08-08T01:16:47.901Z,83.95
2022-08-08T01:22:36.953Z,84.55
2022-08-08T01:27:43.451Z,84.30
2022-08-08T01:33:27.919Z,84.62
2022-08-08T01:38:54.644Z,84.71
2022-08-08T01:44:08.010Z,84.98
2022-08-08T01:49:37.823Z,85.15
2022-08-08T01:55:46.044Z,85.10
2022-08-08T02:00:57.536Z,85.16
2022-08-08T02:06:05.980Z,85.02
2022-08-08T02:11:52.929Z,85.59
2022-08-08T02:17:03.637Z,85.48
2022-08-08T02:22:33.784Z,85.36
2022-08-08T02:27:42.721Z,85.87
2022-08-08T02:33:12.774Z,85.80
2022-08-08T02:38:25.439Z,85.77
2022-08-08T02:44:37.207Z,85.89
2022-08-08T02:49:47.323Z,85.68
2022-08-08T02:55:20.754Z,86.28
2022-08-08T03:01:03.492Z,86.52
2022-08-08T03:06:34.777Z,86.53
2022-08-08T03:12:06.046Z,86.74
2022-08-08T03:17:39.898Z,88.07
2022-08-08T03:22:47.589Z,88.08
2022-08-08T03:27:49.361Z,89.11
2022-08-08T03:33:56.958Z,89.13
2022-08-08T03:38:58.198Z,89.80
2022-08-08T03:44:15.142Z,90.08
2022-08-08T03:49:57.160Z,90.79
2022-08-08T03:55:01.499Z,91.09
2022-08-08T04:00:18.181Z,91.79
2022-08-08T04:05:35.155Z,92.02
2022-08-08T04:10:41.537Z,91.65
2022-08-08T04:16:03.279Z,92.21
2022-08-08T04:21:19.818Z,92.30
2022-08-08T04:26:35.428Z,93.27
2022-08-08T04:31:58.980Z,92.98
2022-08-08T04:37:03.861Z,93.06
2022-08-08T04:42:11.425Z,93.38
2022-08-08T04:47:19.780Z,92.88
2022-08-08T04:52:25.386Z,93.04
2022-08-08T04:57:41.023Z,93.96
2022-08-08T05:02:44.464Z,94.05
2022-08-08T05:07:50.051Z,95.55
2022-08-08T05:13:00.222Z,95.49
2022-08-08T05:18:13.654Z,96.26
2022-08-08T05:23:17.836Z,96.87
2022-08-08T05:28:48.282Z,97.25
2022-08-08T05:33:49.546Z,97.11
2022-08-08T05:38:54.426Z,97.56
2022-08-08T05:44:21.396Z,97.78
2022-08-08T05:49:32.907Z,97.36
2022-08-08T05:54:50.096Z,97.14
2022-08-08T06:00:01.474Z,96.89
2022-08-08T06:05:35.199Z,96.89
2022-08-08T06:10:46.810Z,96.44
2022-08-08T06:15:54.575Z,96.48
2022-08-08T06:21:32.658Z,95.56
2022-08-08T06:26:52.267Z,95.46
2022-08-08T06:32:11.534Z,95.81
2022-08-08T06:37:24.829Z,95.41
2022-08-08T06:42:38.918Z,95.18
2022-08-08T06:47:52.511Z,93.67
2022-08-08T06:53:13.787Z,93.96
2022-08-08T06:58:30.755Z,92.93
2022-08-08T07:04:35.505Z,93.55
2022-08-08T07:09:21.052Z,92.96
2022-08-08T07:14:53.637Z,93.41
2022-08-08T07:20:07.508Z,92.50
2022-08-08T07:25:17.436Z,91.38
2022-08-08T07:30:25.936Z,91.21
2022-08-08T07:35:35.903Z,89.86
2022-08-08T07:40:40.083Z,89.79
2022-08-08T07:46:05.631Z,89.88
2022-08-08T07:51:23.023Z,90.12
2022-08-08T07:56:37.074Z,90.38
2022-08-08T08:02:34.282Z,90.22
2022-08-08T08:07:11.021Z,90.56
2022-08-08T08:12:35.608Z,88.95
2022-08-08T08:17:49.000Z,87.58
2022-08-08T08:22:59.278Z,86.17
2022-08-08T08:28:03.072Z,84.91
2022-08-08T08:33:05.946Z,82.65
2022-08-08T08:38:24.114Z,81.09
2022-08-08T08:43:36.065Z,80.53
2022-08-08T08:48:49.539Z,82.14
2022-08-08T08:53:59.897Z,83.77
2022-08-08T08:59:15.696Z,85.15
2022-08-08T09:04:38.662Z,84.95
2022-08-08T09:09:55.284Z,86.53
2022-08-08T09:15:02.654Z,88.23
2022-08-08T09:21:57.184Z,88.31
2022-08-08T09:25:58.397Z,89.07
2022-08-08T09:31:15.610Z,89.31
2022-08-08T09:36:22.813Z,88.40
2022-08-08T09:42:14.628Z,87.63
2022-08-08T09:47:25.892Z,86.26
2022-08-08T09:52:55.853Z,85.68
2022-08-08T09:58:26.330Z,85.26
2022-08-08T10:03:40.885Z,84.46
2022-08-08T10:08:50.521Z,84.05
2022-08-08T10:13:57.672Z,83.30
2022-08-08T10:19:06.079Z,82.37
2022-08-08T10:24:12.167Z,83.04
2022-08-08T10:29:58.142Z,83.41
2022-08-08T10:35:11.735Z,84.06
2022-08-08T10:40:26.329Z,83.94
2022-08-08T10:45:57.043Z,84.72
2022-08-08T10:51:14.284Z,85.34
2022-08-08T10:56:27.814Z,86.52
2022-08-08T11:01:39.196Z,86.87
2022-08-08T11:06:41.965Z,85.78
2022-08-08T11:12:05.657Z,85.82
2022-08-08T11:17:15.865Z,85.34
2022-08-08T11:22:29.945Z,85.27
2022-08-08T11:27:37.075Z,84.36
2022-08-08T11:32:42.875Z,84.23
2022-08-08T11:38:36.036Z,84.07
2022-08-08T11:43:19.669Z,84.87
2022-08-08T11:48:27.851Z,85.14
2022-08-08T11:53:42.825Z,84.45
2022-08-08T11:59:06.119Z,83.52
2022-08-08T12:04:08.914Z,83.47
2022-08-08T12:09:17.370Z,82.65
2022-08-08T12:14:28.953Z,82.01
2022-08-08T12:19:50.677Z,81.38
2022-08-08T12:24:56.292Z,80.88
2022-08-08T12:30:00.090Z,79.14
2022-08-08T12:35:17.681Z,78.98
2022-08-08T12:40:25.364Z,78.96
2022-08-08T12:45:58.544Z,78.52
2022-08-08T12:51:02.750Z,76.50
2022-08-08T12:56:19.449Z,75.96
2022-08-08T13:01:38.151Z,76.05
2022-08-08T13:06:55.420Z,76.37
2022-08-08T13:12:22.153Z,78.00
2022-08-08T13:18:09.518Z,78.19
2022-08-08T13:22:51.562Z,77.90
2022-08-08T13:28:03.314Z,77.32
2022-08-08T13:33:05.073Z,76.10
2022-08-08T13:38:13.102Z,77.27
2022-08-08T13:43:18.427Z,77.61
2022-08-08T13:48:25.236Z,77.16
2022-08-08T13:53:33.981Z,77.52
2022-08-08T13:58:57.252Z,76.04
2022-08-08T14:04:04.838Z,76.20
2022-08-08T14:09:24.402Z,72.64
2022-08-08T14:14:58.935Z,70.36
2022-08-08T14:20:15.048Z,66.91
2022-08-08T14:25:31.195Z,63.26
2022-08-08T14:30:36.525Z,64.08
2022-08-08T14:35:41.515Z,64.01
2022-08-08T14:40:50.059Z,64.08
2022-08-08T14:46:02.863Z,60.02
2022-08-08T14:51:07.240Z,61.63
2022-08-08T14:56:13.020Z,59.31
2022-08-08T15:01:23.497Z,52.14
2022-08-08T18:13:51.996Z,66.61
2022-08-08T18:18:57.791Z,68.15
2022-08-08T18:24:00.297Z,69.23
2022-08-08T18:29:08.587Z,69.58
2022-08-08T18:34:27.002Z,69.76
2022-08-08T18:39:35.065Z,71.08
2022-08-08T18:44:41.967Z,70.89
2022-08-08T18:49:58.948Z,70.70
2022-08-08T18:55:09.764Z,71.67
2022-08-08T19:00:20.366Z,72.21
2022-08-08T19:05:32.088Z,72.30
2022-08-08T19:10:37.604Z,73.19
2022-08-08T19:15:45.568Z,73.16
2022-08-08T19:20:50.764Z,75.09
2022-08-08T19:26:02.483Z,75.27
2022-08-08T19:31:20.084Z,75.42
2022-08-08T19:36:27.388Z,76.59
2022-08-08T19:41:33.424Z,76.27
2022-08-08T19:46:40.205Z,77.12
2022-08-08T19:51:43.397Z,77.72
2022-08-08T19:56:49.066Z,77.72
2022-08-08T20:02:03.326Z,78.07
2022-08-08T20:08:30.738Z,79.30
2022-08-08T20:12:32.854Z,79.08
2022-08-08T20:17:38.790Z,79.81
2022-08-08T20:22:43.859Z,80.60
2022-08-08T20:27:50.519Z,80.98
2022-08-08T20:32:56.229Z,81.00
2022-08-08T20:38:01.727Z,80.97
2022-08-08T20:43:16.274Z,81.10
2022-08-08T20:48:26.098Z,81.05
2022-08-08T20:53:58.124Z,81.90
2022-08-08T20:58:54.463Z,81.79
2022-08-08T21:04:00.051Z,82.21
2022-08-08T21:09:06.064Z,82.11
2022-08-08T21:14:07.808Z,83.05
2022-08-08T21:19:11.892Z,83.03
2022-08-08T21:24:29.984Z,83.03
2022-08-08T21:30:05.456Z,83.48
2022-08-08T21:34:56.883Z,83.40
2022-08-08T21:40:21.119Z,83.29
2022-08-08T21:48:01.969Z,83.67
2022-08-08T21:51:03.557Z,84.07
2022-08-08T21:56:26.658Z,83.64
2022-08-08T22:01:40.351Z,84.48
2022-08-08T22:06:45.205Z,84.54
2022-08-08T22:11:56.543Z,84.21
2022-08-08T22:17:10.369Z,84.46
2022-08-08T22:22:19.130Z,84.52
2022-08-08T22:27:56.059Z,84.96
2022-08-08T22:32:49.248Z,84.66
2022-08-08T22:37:54.659Z,84.90
2022-08-08T22:42:56.834Z,85.59
2022-08-08T22:47:59.160Z,85.65
2022-08-08T22:54:29.513Z,86.49
2022-08-08T22:58:39.029Z,86.32
2022-08-08T23:03:53.591Z,87.12
2022-08-08T23:09:00.471Z,86.77
2022-08-08T23:14:02.763Z,87.42
2022-08-08T23:19:04.710Z,87.03
2022-08-08T23:24:13.186Z,86.87
2022-08-08T23:29:27.118Z,86.89
2022-08-08T23:34:34.738Z,88.06
2022-08-08T23:39:49.215Z,88.39
2022-08-08T23:44:53.694Z,88.76
2022-08-08T23:50:03.133Z,89.47
2022-08-08T23:55:23.230Z,89.18
